• Join FlightAware (Why Join?)
  • Login
  • US Flag 
04:28AM EDT


 

Airport Tracker/Info


-or-


 

Live Flight TrackerFlight Track Log ✈ AFL150 ✈ 31-Jan-2014 ✈ UUEE / SVO - MUHA / HAV

Flight Track Log - Related Links

Times and Time Zones

All times are in EST time to prevent confusion due to time zone crossing. See the AFL150 flight status page for this flight to view local times or setup timezone preferences in your user account.

Time Position Orientation Groundspeed Altitude Reporting Facility
EST Latitude Longitude Course Direction KTS MPH feet Rate Location/Type
06:20PM 24.3434 -82.3471 28° Northeast  Level FlightAware Approximate
06:21PM 24.4479 -82.2861 28° Northeast  Level FlightAware Approximate
06:22PM 24.5524 -82.2250 28° Northeast  Level FlightAware Approximate
06:23PM 24.5807 -82.1053 82° East  Level FlightAware Approximate
06:24PM 24.5967 -81.9763 82° East  Level FlightAware Approximate
06:25PM 24.6115 -81.8471 83° East  Level FlightAware Approximate
06:26PM 24.6264 -81.7179 83° East  Level FlightAware Approximate
06:27PM 24.6416 -81.5887 83° East  Level FlightAware Approximate
06:28PM 24.6567 -81.4595 83° East  Level FlightAware Approximate
06:29PM 24.6717 -81.3303 83° East  Level FlightAware Approximate
06:30PM 24.6866 -81.2010 83° East  Level FlightAware Approximate
06:31PM 24.6895 -81.0853 189° South  Level FlightAware Approximate
06:32PM 24.5727 -81.1065 189° South  Level FlightAware Approximate
06:33PM 24.4550 -81.1167 180° South  Level FlightAware Approximate
06:34PM 24.3385 -81.1390 190° South  Level FlightAware Approximate
06:35PM 24.2220 -81.1623 190° South  Level FlightAware Approximate
06:36PM 24.1055 -81.1856 190° South  Level FlightAware Approximate
06:37PM 23.9938 -81.2228 222° Southwest  Level FlightAware Approximate
06:38PM 23.9088 -81.3128 228° Southwest  Level FlightAware Approximate
06:39PM 23.8281 -81.4075 225° Southwest  Level FlightAware Approximate
06:40PM 23.7447 -81.4994 225° Southwest  Level FlightAware Approximate
06:41PM 23.6613 -81.5912 225° Southwest  Level FlightAware Approximate
06:42PM 23.5779 -81.6829 225° Southwest  Level FlightAware Approximate
06:43PM 23.4967 -81.7767 231° Southwest  Level FlightAware Approximate
06:44PM 23.4217 -81.8766 231° Southwest  Level FlightAware Approximate
06:45PM 23.3432 -81.9732 228° Southwest  Level FlightAware Approximate
06:46PM 23.2644 -82.0693 226° Southwest  Level FlightAware Approximate
06:47PM 23.1827 -82.1626 226° Southwest  Level FlightAware Approximate
06:48PM 23.0941 -82.2451 241° Southwest  Level FlightAware Approximate
06:49PM 23.0211 -82.3456 223° Southwest  Level FlightAware Approximate
06:50PM 22.9891 -82.4091 223° Southwest  Level Estimated
06:51PM 22.9891 -82.4091 223° Southwest  Level Estimated
06:52PM 22.9891 -82.4091 223° Southwest  Level Estimated
06:53PM 22.9891 -82.4091 223° Southwest  Level Estimated
06:54PM 22.9891 -82.4091 223° Southwest  Level Estimated
06:55PM 22.9891 -82.4091 223° Southwest  Level Estimated
06:56PM 22.9891 -82.4091 223° Southwest  Level Estimated